Terminal Aerodrome Forecast
Issued by NWS

Home | Current Version | Previous Version | Graphics & Text | Print | Product List | Glossary On
Versions: 1 2 3 4 5 6 7 8 9 10 11 12 13 14 15 16 17 18 19 20 21 22 23 24 25 26 27
296
FTUS43 KGRB 200305 AAB
TAFMTW
TAF AMD
KMTW 200305Z 2003/2024 18003KT 1/4SM FG OVC003
      TEMPO 2003/2006 1/2SM FG
     FM200600 VRB03KT 1SM -RA BR OVC003
      TEMPO 2008/2012 1/2SM -RA FG OVC002
     FM201200 06003KT 3/4SM -RA BR OVC003
     FM201700 07006KT 3SM BR SCT004 OVC030=

USA.gov is the U.S. government's official web portal to all federal, state and local government web resources and services.